createdAt,value
2022-11-17T00:01:18.832Z,97.04
2022-11-17T00:03:49.559Z,98.05
2022-11-17T00:06:17.284Z,98.05
2022-11-17T00:08:43.871Z,98.36
2022-11-17T00:11:10.447Z,98.49
2022-11-17T00:13:55.413Z,98.81
2022-11-17T00:16:22.517Z,98.62
2022-11-17T00:19:07.539Z,99.02
2022-11-17T00:21:34.446Z,99.54
2022-11-17T00:24:00.774Z,99.98
2022-11-17T00:26:32.464Z,99.53
2022-11-17T00:29:01.351Z,100.00
2022-11-17T00:31:48.498Z,100.00
2022-11-17T00:34:17.506Z,100.00
2022-11-17T00:36:46.239Z,100.00
2022-11-17T00:39:14.299Z,100.00
2022-11-17T00:41:40.995Z,100.00
2022-11-17T00:44:08.155Z,100.00
2022-11-17T00:46:37.141Z,100.00
2022-11-17T00:49:07.464Z,100.00
2022-11-17T00:51:34.081Z,100.00
2022-11-17T00:54:00.822Z,100.00
2022-11-17T00:56:27.691Z,100.00
2022-11-17T00:58:54.285Z,100.00
2022-11-17T01:01:21.373Z,100.00
2022-11-17T01:03:48.743Z,100.00
2022-11-17T01:06:18.376Z,100.00
2022-11-17T01:08:45.573Z,100.00
2022-11-17T01:11:21.564Z,100.00
2022-11-17T01:13:48.026Z,100.00
2022-11-17T01:16:17.512Z,100.00
2022-11-17T01:18:45.928Z,100.00
2022-11-17T01:21:15.048Z,100.00
2022-11-17T01:23:42.870Z,100.00
2022-11-17T01:26:15.382Z,100.00
2022-11-17T01:28:42.818Z,100.00
2022-11-17T01:31:17.983Z,100.00
2022-11-17T01:33:44.659Z,100.00
2022-11-17T01:36:17.233Z,100.00
2022-11-17T01:38:44.489Z,100.00
2022-11-17T01:41:15.717Z,100.00
2022-11-17T01:43:45.144Z,100.00
2022-11-17T01:46:31.400Z,100.00
2022-11-17T01:49:07.288Z,100.00
2022-11-17T01:51:37.563Z,100.00
2022-11-17T01:54:04.303Z,100.00
2022-11-17T01:56:38.418Z,100.00
2022-11-17T01:59:23.680Z,100.00
2022-11-17T02:01:56.880Z,100.00
2022-11-17T02:04:39.945Z,100.00
2022-11-17T02:07:23.744Z,100.00
2022-11-17T02:09:52.171Z,100.00
2022-11-17T02:12:20.460Z,100.00
2022-11-17T02:14:49.340Z,100.00
2022-11-17T02:17:16.185Z,100.00
2022-11-17T02:19:46.620Z,100.00
2022-11-17T02:22:18.894Z,100.00
2022-11-17T02:24:56.545Z,100.00
2022-11-17T02:27:41.536Z,100.00
2022-11-17T02:30:16.800Z,100.00
2022-11-17T02:33:13.275Z,100.00
2022-11-17T02:36:03.332Z,100.00
2022-11-17T02:38:56.392Z,100.00
2022-11-17T02:41:29.568Z,100.00
2022-11-17T02:44:17.051Z,100.00
2022-11-17T02:46:54.491Z,100.00
2022-11-17T02:49:26.266Z,100.00
2022-11-17T02:51:56.892Z,100.00
2022-11-17T02:54:27.994Z,100.00
2022-11-17T02:56:54.579Z,100.00
2022-11-17T02:59:26.767Z,100.00
2022-11-17T03:02:20.143Z,100.00
2022-11-17T03:05:05.559Z,100.00
2022-11-17T03:08:06.004Z,100.00
2022-11-17T03:11:03.979Z,100.00
2022-11-17T03:13:53.637Z,100.00
2022-11-17T03:16:36.907Z,100.00
2022-11-17T03:19:16.817Z,100.00
2022-11-17T03:21:59.357Z,100.00
2022-11-17T03:24:36.815Z,100.00
2022-11-17T03:27:09.911Z,100.00
2022-11-17T03:29:41.025Z,100.00
2022-11-17T03:32:09.414Z,100.00
2022-11-17T03:34:42.028Z,100.00
2022-11-17T03:37:11.845Z,100.00
2022-11-17T03:39:42.145Z,100.00
2022-11-17T03:42:16.323Z,100.00
2022-11-17T03:44:49.111Z,100.00
2022-11-17T03:47:19.340Z,100.00
2022-11-17T03:49:51.831Z,100.00
2022-11-17T03:52:19.198Z,100.00
2022-11-17T03:54:45.663Z,100.00
2022-11-17T03:57:46.433Z,100.00
2022-11-17T04:00:16.755Z,100.00
2022-11-17T04:02:45.379Z,100.00
2022-11-17T04:05:14.375Z,100.00
2022-11-17T04:07:46.658Z,100.00
2022-11-17T04:10:21.689Z,100.00
2022-11-17T04:13:07.792Z,100.00
2022-11-17T04:15:53.119Z,100.00
2022-11-17T04:18:20.215Z,100.00
2022-11-17T04:20:50.411Z,100.00
2022-11-17T04:23:16.765Z,100.00
2022-11-17T04:26:21.291Z,100.00
2022-11-17T04:28:50.000Z,100.00
2022-11-17T04:31:17.823Z,100.00
2022-11-17T04:33:52.696Z,100.00
2022-11-17T04:36:27.444Z,100.00
2022-11-17T04:38:55.706Z,100.00
2022-11-17T04:41:42.139Z,100.00
2022-11-17T04:44:10.252Z,100.00
2022-11-17T04:46:37.886Z,100.00
2022-11-17T04:49:05.268Z,100.00
2022-11-17T04:51:32.391Z,100.00
2022-11-17T04:53:59.496Z,100.00
2022-11-17T04:56:26.945Z,100.00
2022-11-17T04:58:53.679Z,100.00
2022-11-17T05:01:20.979Z,100.00
2022-11-17T05:03:55.044Z,100.00
2022-11-17T05:06:32.026Z,100.00
2022-11-17T05:09:00.020Z,100.00
2022-11-17T05:11:47.343Z,100.00
2022-11-17T05:14:15.868Z,100.00
2022-11-17T05:17:07.383Z,100.00
2022-11-17T05:19:38.312Z,100.00
2022-11-17T05:22:25.442Z,100.00
2022-11-17T05:24:52.904Z,100.00
2022-11-17T05:27:19.910Z,100.00
2022-11-17T05:29:46.489Z,100.00
2022-11-17T05:32:12.850Z,100.00
2022-11-17T05:34:39.375Z,100.00
2022-11-17T05:37:06.400Z,100.00
2022-11-17T05:39:32.824Z,100.00
2022-11-17T05:41:59.229Z,100.00
2022-11-17T05:44:25.588Z,100.00
2022-11-17T05:46:51.939Z,100.00
2022-11-17T05:49:18.299Z,100.00
2022-11-17T05:51:48.562Z,100.00
2022-11-17T05:54:17.715Z,100.00
2022-11-17T05:57:00.315Z,100.00
2022-11-17T05:59:36.641Z,100.00
2022-11-17T06:02:05.073Z,100.00
2022-11-17T06:04:32.488Z,100.00
2022-11-17T06:07:00.584Z,100.00
2022-11-17T06:09:36.625Z,100.00
2022-11-17T06:12:06.143Z,100.00
2022-11-17T06:14:34.257Z,100.00
2022-11-17T06:17:05.329Z,100.00
2022-11-17T06:19:39.866Z,100.00
2022-11-17T06:22:14.553Z,100.00
2022-11-17T06:24:44.674Z,100.00
2022-11-17T06:27:14.515Z,100.00
2022-11-17T06:29:44.666Z,100.00
2022-11-17T06:32:15.835Z,100.00
2022-11-17T06:34:48.040Z,100.00
2022-11-17T06:37:15.716Z,100.00
2022-11-17T06:39:42.035Z,100.00
2022-11-17T06:42:08.460Z,100.00
2022-11-17T06:44:34.794Z,100.00
2022-11-17T06:47:01.411Z,100.00
2022-11-17T06:49:28.166Z,100.00
2022-11-17T06:51:55.145Z,100.00
2022-11-17T06:54:21.600Z,100.00
2022-11-17T06:56:49.682Z,100.00
2022-11-17T06:59:16.294Z,100.00
2022-11-17T07:01:43.431Z,100.00
2022-11-17T07:04:10.071Z,100.00
2022-11-17T07:06:37.806Z,100.00
2022-11-17T07:09:05.487Z,100.00
2022-11-17T07:11:34.641Z,100.00
2022-11-17T07:14:00.995Z,100.00
2022-11-17T07:16:27.612Z,100.00
2022-11-17T07:18:54.022Z,100.00
2022-11-17T07:21:22.395Z,100.00
2022-11-17T07:23:49.964Z,100.00
2022-11-17T07:26:16.432Z,100.00
2022-11-17T07:28:42.874Z,100.00
2022-11-17T07:31:09.662Z,100.00
2022-11-17T07:33:36.696Z,100.00
2022-11-17T07:36:09.471Z,100.00
2022-11-17T07:38:37.940Z,100.00
2022-11-17T07:41:05.966Z,100.00
2022-11-17T07:43:33.946Z,100.00
2022-11-17T07:46:20.683Z,100.00
2022-11-17T07:48:47.154Z,100.00
2022-11-17T07:51:14.164Z,100.00
2022-11-17T07:53:40.674Z,100.00
2022-11-17T07:56:09.532Z,100.00
2022-11-17T07:58:36.677Z,100.00
2022-11-17T08:01:15.535Z,100.00
2022-11-17T08:03:45.090Z,100.00
2022-11-17T08:06:11.893Z,100.00
2022-11-17T08:08:39.101Z,100.00
2022-11-17T08:11:08.202Z,100.00
2022-11-17T08:13:35.277Z,100.00
2022-11-17T08:16:02.215Z,100.00
2022-11-17T08:18:29.753Z,100.00
2022-11-17T08:21:10.709Z,100.00
2022-11-17T08:23:37.845Z,100.00
2022-11-17T08:26:08.431Z,100.00
2022-11-17T08:28:35.810Z,100.00
2022-11-17T08:31:07.180Z,100.00
2022-11-17T08:33:34.108Z,100.00
2022-11-17T08:36:02.264Z,100.00
2022-11-17T08:38:29.827Z,100.00
2022-11-17T08:40:57.117Z,100.00
2022-11-17T08:43:23.589Z,100.00
2022-11-17T08:45:50.585Z,100.00
2022-11-17T08:48:17.268Z,100.00
2022-11-17T08:50:43.671Z,100.00
2022-11-17T08:53:15.072Z,100.00
2022-11-17T08:55:41.845Z,100.00
2022-11-17T08:58:09.288Z,100.00
2022-11-17T09:00:36.233Z,100.00
2022-11-17T09:03:06.867Z,100.00
2022-11-17T09:05:38.530Z,100.00
2022-11-17T09:08:29.638Z,100.00
2022-11-17T09:10:51.837Z,100.00
2022-11-17T09:13:19.211Z,100.00
2022-11-17T09:15:45.816Z,100.00
2022-11-17T09:18:12.652Z,100.00
2022-11-17T09:20:45.349Z,100.00
2022-11-17T09:23:12.698Z,100.00
2022-11-17T09:25:39.942Z,100.00
2022-11-17T09:28:06.465Z,100.00
2022-11-17T09:30:32.955Z,100.00
2022-11-17T09:32:59.486Z,100.00
2022-11-17T09:35:25.952Z,100.00
2022-11-17T09:37:52.304Z,100.00
2022-11-17T09:40:19.747Z,100.00
2022-11-17T09:42:46.710Z,100.00
2022-11-17T09:45:30.077Z,100.00
2022-11-17T09:48:40.361Z,100.00
2022-11-17T09:51:07.408Z,100.00
2022-11-17T09:53:43.246Z,100.00
2022-11-17T09:56:12.214Z,100.00
2022-11-17T09:59:01.440Z,100.00
2022-11-17T10:01:29.063Z,100.00
2022-11-17T10:03:59.044Z,100.00
2022-11-17T10:06:27.526Z,100.00
2022-11-17T10:09:15.348Z,100.00
2022-11-17T10:11:44.260Z,100.00
2022-11-17T10:14:21.923Z,100.00
2022-11-17T10:16:56.826Z,100.00
2022-11-17T10:19:33.787Z,100.00
2022-11-17T10:22:16.266Z,100.00
2022-11-17T10:24:52.138Z,100.00
2022-11-17T10:27:25.370Z,100.00
2022-11-17T10:30:09.981Z,100.00
2022-11-17T10:32:48.209Z,100.00
2022-11-17T10:35:20.925Z,100.00
2022-11-17T10:37:59.598Z,100.00
2022-11-17T10:40:53.554Z,100.00
2022-11-17T10:43:28.655Z,100.00
2022-11-17T10:46:13.212Z,100.00
2022-11-17T10:48:55.405Z,100.00
2022-11-17T10:51:24.823Z,100.00
2022-11-17T10:54:21.183Z,100.00
2022-11-17T10:56:54.667Z,100.00
2022-11-17T10:59:27.098Z,100.00
2022-11-17T11:01:53.738Z,100.00
2022-11-17T11:04:34.433Z,100.00
2022-11-17T11:07:13.770Z,100.00
2022-11-17T11:10:03.273Z,100.00
2022-11-17T11:12:52.215Z,100.00
2022-11-17T11:15:21.452Z,100.00
2022-11-17T11:17:48.264Z,100.00
2022-11-17T11:20:17.710Z,100.00
2022-11-17T11:22:49.779Z,100.00
2022-11-17T11:25:34.815Z,100.00
2022-11-17T11:28:10.325Z,100.00
2022-11-17T11:31:04.501Z,100.00
2022-11-17T11:33:38.360Z,100.00
2022-11-17T11:36:29.444Z,100.00
2022-11-17T11:39:30.096Z,100.00
2022-11-17T11:42:18.161Z,100.00
2022-11-17T11:44:58.161Z,100.00
2022-11-17T11:47:55.825Z,100.00
2022-11-17T11:50:25.994Z,100.00
2022-11-17T11:53:20.067Z,100.00
2022-11-17T11:55:52.649Z,100.00
2022-11-17T11:58:24.317Z,100.00
2022-11-17T12:00:56.321Z,100.00
2022-11-17T12:03:37.637Z,100.00
2022-11-17T12:06:39.502Z,100.00
2022-11-17T12:09:33.217Z,100.00
2022-11-17T12:12:01.773Z,100.00
2022-11-17T12:14:33.412Z,100.00
2022-11-17T12:17:07.663Z,100.00
2022-11-17T12:19:51.260Z,100.00
2022-11-17T12:22:29.944Z,100.00
2022-11-17T12:24:59.186Z,100.00
2022-11-17T12:27:43.561Z,100.00
2022-11-17T12:30:33.356Z,100.00
2022-11-17T12:33:01.479Z,100.00
2022-11-17T12:35:30.220Z,100.00
2022-11-17T12:38:18.032Z,100.00
2022-11-17T12:40:45.850Z,100.00
2022-11-17T12:43:15.428Z,100.00
2022-11-17T12:46:00.630Z,100.00
2022-11-17T12:48:34.844Z,100.00
2022-11-17T12:51:30.445Z,100.00
2022-11-17T12:54:10.955Z,100.00
2022-11-17T12:56:49.368Z,100.00
2022-11-17T12:59:56.220Z,100.00
2022-11-17T13:02:32.824Z,100.00
2022-11-17T13:05:11.586Z,100.00
2022-11-17T13:07:38.139Z,100.00
2022-11-17T13:10:05.120Z,100.00
2022-11-17T13:12:33.893Z,100.00
2022-11-17T13:15:05.105Z,100.00
2022-11-17T13:17:43.189Z,100.00
2022-11-17T13:20:27.395Z,100.00
2022-11-17T13:23:06.582Z,100.00
2022-11-17T13:25:34.398Z,100.00
2022-11-17T13:28:04.774Z,100.00
2022-11-17T13:30:33.192Z,100.00
2022-11-17T13:33:02.250Z,100.00
2022-11-17T13:35:30.066Z,100.00
2022-11-17T13:38:11.406Z,100.00
2022-11-17T13:40:40.494Z,100.00
2022-11-17T13:43:12.179Z,100.00
2022-11-17T13:45:38.823Z,100.00
2022-11-17T13:48:05.429Z,100.00
2022-11-17T13:50:31.843Z,100.00
2022-11-17T13:53:01.730Z,100.00
2022-11-17T13:55:28.300Z,100.00
2022-11-17T13:57:59.003Z,100.00
2022-11-17T14:00:26.240Z,100.00
2022-11-17T14:03:36.013Z,100.00
2022-11-17T14:06:05.101Z,100.00
2022-11-17T14:08:33.551Z,100.00
2022-11-17T14:11:12.220Z,100.00
2022-11-17T14:14:01.033Z,100.00
2022-11-17T14:16:34.607Z,100.00
2022-11-17T14:19:24.117Z,100.00
2022-11-17T14:22:03.259Z,100.00
2022-11-17T14:24:32.007Z,100.00
2022-11-17T14:26:58.532Z,100.00
2022-11-17T14:29:25.893Z,100.00
2022-11-17T14:31:52.244Z,100.00
2022-11-17T14:34:18.660Z,100.00
2022-11-17T14:36:46.636Z,100.00
2022-11-17T14:39:15.641Z,100.00
2022-11-17T14:41:43.926Z,100.00
2022-11-17T14:44:13.509Z,100.00
2022-11-17T14:46:40.368Z,100.00
2022-11-17T14:49:07.180Z,100.00
2022-11-17T14:51:34.482Z,100.00
2022-11-17T14:54:01.316Z,100.00
2022-11-17T14:56:27.865Z,100.00
2022-11-17T14:58:59.451Z,100.00
2022-11-17T15:01:31.896Z,100.00
2022-11-17T15:04:15.424Z,100.00
2022-11-17T15:06:47.781Z,100.00
2022-11-17T15:09:16.426Z,100.00
2022-11-17T15:11:42.939Z,100.00
2022-11-17T15:14:10.778Z,100.00
2022-11-17T15:16:37.172Z,100.00
2022-11-17T15:19:03.589Z,100.00
2022-11-17T15:21:30.071Z,100.00
2022-11-17T15:23:56.404Z,100.00
2022-11-17T15:26:26.820Z,100.00
2022-11-17T15:28:57.771Z,100.00
2022-11-17T15:31:24.322Z,100.00
2022-11-17T15:33:52.063Z,100.00
2022-11-17T15:36:20.447Z,100.00
2022-11-17T15:38:57.675Z,100.00
2022-11-17T15:41:25.458Z,100.00
2022-11-17T15:44:04.975Z,100.00
2022-11-17T15:46:32.197Z,99.87
2022-11-17T15:48:58.789Z,100.00
2022-11-17T15:51:28.957Z,100.00
2022-11-17T15:54:01.981Z,99.91
2022-11-17T15:56:37.619Z,99.42
2022-11-17T15:59:05.450Z,99.19
2022-11-17T16:01:40.128Z,99.21
2022-11-17T16:04:11.583Z,99.92
2022-11-17T16:06:39.857Z,98.81
2022-11-17T16:09:06.691Z,98.36
2022-11-17T16:11:33.908Z,97.77
2022-11-17T16:14:00.872Z,98.23
2022-11-17T16:16:30.169Z,97.76
2022-11-17T16:18:57.338Z,98.25
2022-11-17T16:21:24.519Z,98.45
2022-11-17T16:24:06.302Z,98.54
2022-11-17T16:26:32.744Z,98.14
2022-11-17T16:29:01.540Z,98.06
2022-11-17T16:31:30.728Z,97.60
2022-11-17T16:34:02.627Z,97.84
2022-11-17T16:36:36.286Z,98.00
2022-11-17T16:39:11.818Z,97.83
2022-11-17T16:41:41.066Z,97.36
2022-11-17T16:44:13.995Z,97.55
2022-11-17T16:46:48.234Z,97.63
2022-11-17T16:49:16.910Z,97.51
2022-11-17T16:51:48.774Z,97.98
2022-11-17T16:54:15.536Z,97.52
2022-11-17T16:56:42.356Z,97.20
2022-11-17T16:59:10.727Z,97.61
2022-11-17T17:01:37.939Z,96.67
2022-11-17T17:04:10.136Z,97.51
2022-11-17T17:06:40.364Z,97.42
2022-11-17T17:09:09.798Z,96.84
2022-11-17T17:11:36.732Z,96.38
2022-11-17T17:14:05.832Z,97.16
2022-11-17T17:16:37.415Z,96.45
2022-11-17T17:19:13.406Z,97.52
2022-11-17T17:21:42.883Z,96.34
2022-11-17T17:24:10.341Z,96.12
2022-11-17T17:26:37.037Z,96.65
2022-11-17T17:29:05.887Z,96.46
2022-11-17T17:31:37.563Z,95.91
2022-11-17T17:34:06.296Z,96.91
2022-11-17T17:36:34.595Z,96.63
2022-11-17T17:39:02.045Z,96.55
2022-11-17T17:41:31.402Z,96.42
2022-11-17T17:44:00.460Z,97.28
2022-11-17T17:46:29.884Z,96.81
2022-11-17T17:48:57.566Z,96.21
2022-11-17T17:51:25.886Z,96.67
2022-11-17T17:53:54.341Z,96.07
2022-11-17T17:56:22.178Z,96.18
2022-11-17T17:58:50.579Z,95.94
2022-11-17T18:01:25.378Z,96.93
2022-11-17T18:03:54.428Z,96.96
2022-11-17T18:06:22.418Z,96.38
2022-11-17T18:08:50.385Z,96.18
2022-11-17T18:11:19.576Z,95.10
2022-11-17T18:13:48.789Z,95.78
2022-11-17T18:16:21.694Z,95.59
2022-11-17T18:18:49.093Z,96.21
2022-11-17T18:21:18.924Z,96.52
2022-11-17T18:23:45.825Z,95.20
2022-11-17T18:26:26.110Z,96.59
2022-11-17T18:28:54.253Z,95.63
2022-11-17T18:31:22.182Z,95.36
2022-11-17T18:33:53.120Z,95.96
2022-11-17T18:36:20.110Z,94.42
2022-11-17T18:38:46.574Z,94.96
2022-11-17T18:41:15.968Z,94.58
2022-11-17T18:43:43.666Z,94.94
2022-11-17T18:46:21.668Z,96.33
2022-11-17T18:48:51.647Z,95.18
2022-11-17T18:51:21.381Z,94.97
2022-11-17T18:53:49.838Z,95.17
2022-11-17T18:56:19.473Z,95.13
2022-11-17T18:58:46.787Z,95.88
2022-11-17T19:01:15.546Z,95.48
2022-11-17T19:03:43.990Z,95.71
2022-11-17T19:06:12.147Z,95.79
2022-11-17T19:08:38.767Z,95.29
2022-11-17T19:11:07.400Z,95.94
2022-11-17T19:13:36.403Z,95.19
2022-11-17T19:16:14.604Z,95.94
2022-11-17T19:18:41.939Z,95.42
2022-11-17T19:21:19.904Z,96.44
2022-11-17T19:23:51.923Z,96.33
2022-11-17T19:26:21.454Z,95.61
2022-11-17T19:28:50.885Z,95.26
2022-11-17T19:31:19.997Z,95.31
2022-11-17T19:33:48.043Z,95.13
2022-11-17T19:36:15.644Z,95.47
2022-11-17T19:38:43.202Z,95.47
2022-11-17T19:41:26.865Z,96.66
2022-11-17T19:43:58.746Z,95.74
2022-11-17T19:46:27.552Z,95.91
2022-11-17T19:48:55.349Z,95.57
2022-11-17T19:51:27.245Z,96.01
2022-11-17T19:53:56.333Z,95.87
2022-11-17T19:56:24.245Z,95.62
2022-11-17T19:58:51.292Z,96.03
2022-11-17T20:01:29.060Z,95.30
2022-11-17T20:03:57.305Z,95.40
2022-11-17T20:06:27.270Z,95.86
2022-11-17T20:08:55.384Z,95.85
2022-11-17T20:11:24.524Z,95.25
2022-11-17T20:13:50.991Z,95.40
2022-11-17T20:16:19.960Z,96.06
2022-11-17T20:18:49.916Z,96.25
2022-11-17T20:21:16.428Z,95.82
2022-11-17T20:23:43.599Z,95.31
2022-11-17T20:26:17.993Z,95.84
2022-11-17T20:28:45.099Z,95.14
2022-11-17T20:31:13.753Z,95.20
2022-11-17T20:33:41.850Z,94.86
2022-11-17T20:36:11.058Z,95.45
2022-11-17T20:38:37.519Z,94.68
2022-11-17T20:41:04.644Z,94.65
2022-11-17T20:43:31.349Z,95.76
2022-11-17T20:45:58.347Z,95.89
2022-11-17T20:48:26.191Z,95.24
2022-11-17T20:51:06.551Z,95.66
2022-11-17T20:53:34.255Z,95.25
2022-11-17T20:56:02.412Z,95.52
2022-11-17T20:58:29.964Z,95.85
2022-11-17T21:00:56.696Z,96.26
2022-11-17T21:03:23.876Z,95.96
2022-11-17T21:05:58.372Z,96.01
2022-11-17T21:08:30.090Z,95.95
2022-11-17T21:11:01.638Z,96.75
2022-11-17T21:13:30.345Z,95.67
2022-11-17T21:16:14.177Z,97.42
2022-11-17T21:18:49.721Z,96.76
2022-11-17T21:21:16.147Z,96.23
2022-11-17T21:23:43.859Z,95.99
2022-11-17T21:26:17.032Z,95.85
2022-11-17T21:28:43.515Z,96.17
2022-11-17T21:31:14.511Z,96.18
2022-11-17T21:33:41.735Z,96.54
2022-11-17T21:36:14.029Z,96.53
2022-11-17T21:38:41.049Z,96.46
2022-11-17T21:41:13.230Z,96.13
2022-11-17T21:43:40.920Z,96.34
2022-11-17T21:46:13.786Z,96.47
2022-11-17T21:48:40.931Z,96.65
2022-11-17T21:51:14.996Z,96.10
2022-11-17T21:53:41.394Z,97.05
2022-11-17T21:56:08.126Z,96.44
2022-11-17T21:58:34.965Z,96.92
2022-11-17T22:01:15.566Z,97.62
2022-11-17T22:03:42.842Z,96.51
2022-11-17T22:06:12.069Z,96.78
2022-11-17T22:08:40.874Z,96.79
2022-11-17T22:11:12.304Z,97.07
2022-11-17T22:13:39.488Z,96.64
2022-11-17T22:16:09.526Z,96.71
2022-11-17T22:18:36.346Z,97.10
2022-11-17T22:21:02.801Z,97.15
2022-11-17T22:23:30.342Z,96.63
2022-11-17T22:26:02.772Z,97.69
2022-11-17T22:28:29.658Z,96.94
2022-11-17T22:30:56.424Z,97.19
2022-11-17T22:33:23.408Z,97.46
2022-11-17T22:35:50.351Z,97.28
2022-11-17T22:38:17.207Z,97.37
2022-11-17T22:40:43.940Z,97.31
2022-11-17T22:43:14.659Z,97.20
2022-11-17T22:45:41.867Z,96.98
2022-11-17T22:48:08.805Z,97.38
2022-11-17T22:50:36.052Z,97.33
2022-11-17T22:53:02.843Z,96.94
2022-11-17T22:55:29.523Z,97.46
2022-11-17T22:57:55.940Z,97.97
2022-11-17T23:00:22.491Z,97.35
2022-11-17T23:02:49.155Z,97.84
2022-11-17T23:05:16.132Z,97.93
2022-11-17T23:07:42.663Z,97.36
2022-11-17T23:10:09.928Z,97.46
2022-11-17T23:12:36.560Z,97.27
2022-11-17T23:15:03.156Z,98.03
2022-11-17T23:17:29.715Z,97.38
2022-11-17T23:19:56.128Z,97.40
2022-11-17T23:22:22.547Z,97.93
2022-11-17T23:24:48.953Z,97.63
2022-11-17T23:27:15.350Z,97.81
2022-11-17T23:29:41.779Z,98.04
2022-11-17T23:32:08.281Z,98.10
2022-11-17T23:34:34.744Z,97.74
2022-11-17T23:37:03.924Z,97.80
2022-11-17T23:39:30.618Z,97.82
2022-11-17T23:41:57.018Z,97.70
2022-11-17T23:44:23.409Z,97.93
2022-11-17T23:46:49.769Z,98.14
2022-11-17T23:49:16.826Z,98.18
2022-11-17T23:51:43.399Z,98.20
2022-11-17T23:54:13.102Z,98.20
2022-11-17T23:56:39.913Z,98.19
2022-11-17T23:59:08.133Z,98.50
